sensor_id;sensor_type;location;lat;lon;timestamp;pressure;altitude;pressure_sealevel;temperature;humidity
58955;BME280;45815;52.334;5.024;2023-03-19T00:01:55;101054.75;;;10.92;100.00
58955;BME280;45815;52.334;5.024;2023-03-19T00:04:22;101051.97;;;10.84;100.00
58955;BME280;45815;52.334;5.024;2023-03-19T00:06:48;101057.25;;;10.86;100.00
58955;BME280;45815;52.334;5.024;2023-03-19T00:09:14;101058.84;;;10.79;100.00
58955;BME280;45815;52.334;5.024;2023-03-19T00:11:43;101070.38;;;10.84;100.00
58955;BME280;45815;52.334;5.024;2023-03-19T00:14:08;101073.00;;;10.86;100.00
58955;BME280;45815;52.334;5.024;2023-03-19T00:16:34;101072.16;;;10.87;100.00
58955;BME280;45815;52.334;5.024;2023-03-19T00:19:00;101069.53;;;10.87;100.00
58955;BME280;45815;52.334;5.024;2023-03-19T00:21:26;101068.66;;;10.88;100.00
58955;BME280;45815;52.334;5.024;2023-03-19T00:23:52;101081.75;;;10.85;100.00
58955;BME280;45815;52.334;5.024;2023-03-19T00:26:17;101080.81;;;10.83;100.00
58955;BME280;45815;52.334;5.024;2023-03-19T00:28:44;101080.81;;;10.83;100.00
58955;BME280;45815;52.334;5.024;2023-03-19T00:31:14;101073.88;;;10.85;100.00
58955;BME280;45815;52.334;5.024;2023-03-19T00:33:41;101071.25;;;10.85;100.00
58955;BME280;45815;52.334;5.024;2023-03-19T00:36:07;101077.41;;;10.87;100.00
58955;BME280;45815;52.334;5.024;2023-03-19T00:38:33;101087.91;;;10.87;100.00
58955;BME280;45815;52.334;5.024;2023-03-19T00:41:02;101088.84;;;10.89;100.00
58955;BME280;45815;52.334;5.024;2023-03-19T00:43:29;101087.84;;;10.84;100.00
58955;BME280;45815;52.334;5.024;2023-03-19T00:45:55;101087.91;;;10.87;100.00
58955;BME280;45815;52.334;5.024;2023-03-19T00:48:20;101094.09;;;10.89;100.00
58955;BME280;45815;52.334;5.024;2023-03-19T00:50:46;101093.19;;;10.87;100.00
58955;BME280;45815;52.334;5.024;2023-03-19T00:53:12;101098.34;;;10.84;100.00
58955;BME280;45815;52.334;5.024;2023-03-19T00:55:38;101093.06;;;10.82;100.00
58955;BME280;45815;52.334;5.024;2023-03-19T00:58:04;101084.16;;;10.75;100.00
58955;BME280;45815;52.334;5.024;2023-03-19T01:00:34;101095.75;;;10.85;100.00
58955;BME280;45815;52.334;5.024;2023-03-19T01:03:00;101093.09;;;10.84;100.00
58955;BME280;45815;52.334;5.024;2023-03-19T01:05:26;101083.25;;;10.73;100.00
58955;BME280;45815;52.334;5.024;2023-03-19T01:07:51;101099.19;;;10.83;100.00
58955;BME280;45815;52.334;5.024;2023-03-19T01:10:23;101093.06;;;10.82;100.00
58955;BME280;45815;52.334;5.024;2023-03-19T01:12:49;101100.94;;;10.82;100.00
58955;BME280;45815;52.334;5.024;2023-03-19T01:15:15;101100.91;;;10.81;100.00
58955;BME280;45815;52.334;5.024;2023-03-19T01:17:41;101089.28;;;10.69;100.00
58955;BME280;45815;52.334;5.024;2023-03-19T01:20:08;101095.59;;;10.79;100.00
58955;BME280;45815;52.334;5.024;2023-03-19T01:22:38;101093.84;;;10.78;100.00
58955;BME280;45815;52.334;5.024;2023-03-19T01:25:06;101096.53;;;10.80;100.00
58955;BME280;45815;52.334;5.024;2023-03-19T01:27:32;101090.41;;;10.81;100.00
58955;BME280;45815;52.334;5.024;2023-03-19T01:29:58;101092.16;;;10.80;100.00
58955;BME280;45815;52.334;5.024;2023-03-19T01:32:44;101092.00;;;10.74;100.00
58955;BME280;45815;52.334;5.024;2023-03-19T01:35:24;101094.63;;;10.74;100.00
58955;BME280;45815;52.334;5.024;2023-03-19T01:37:49;101090.25;;;10.74;100.00
58955;BME280;45815;52.334;5.024;2023-03-19T01:40:15;101093.91;;;10.80;100.00
58955;BME280;45815;52.334;5.024;2023-03-19T01:43:09;101094.66;;;10.75;100.00
58955;BME280;45815;52.334;5.024;2023-03-19T01:45:57;101098.22;;;10.77;100.00
58955;BME280;45815;52.334;5.024;2023-03-19T01:48:53;101100.84;;;10.79;100.00
58955;BME280;45815;52.334;5.024;2023-03-19T01:51:25;101092.88;;;10.74;100.00
58955;BME280;45815;52.334;5.024;2023-03-19T01:54:09;101094.66;;;10.75;100.00
58955;BME280;45815;52.334;5.024;2023-03-19T01:56:46;101093.69;;;10.72;100.00
58955;BME280;45815;52.334;5.024;2023-03-19T01:59:26;101098.00;;;10.68;100.00
58955;BME280;45815;52.334;5.024;2023-03-19T02:02:49;101090.69;;;10.55;100.00
58955;BME280;45815;52.334;5.024;2023-03-19T02:05:33;101097.66;;;10.53;100.00
58955;BME280;45815;52.334;5.024;2023-03-19T02:08:05;101101.13;;;10.52;100.00
58955;BME280;45815;52.334;5.024;2023-03-19T02:10:32;101096.66;;;10.48;100.00
58955;BME280;45815;52.334;5.024;2023-03-19T02:12:58;101094.03;;;10.48;100.00
58955;BME280;45815;52.334;5.024;2023-03-19T02:15:23;101098.28;;;10.43;100.00
58955;BME280;45815;52.334;5.024;2023-03-19T02:17:49;101099.13;;;10.42;100.00
58955;BME280;45815;52.334;5.024;2023-03-19T02:20:34;101098.13;;;10.35;100.00
58955;BME280;45815;52.334;5.024;2023-03-19T02:23:16;101099.72;;;10.30;100.00
58955;BME280;45815;52.334;5.024;2023-03-19T02:26:12;101105.75;;;10.27;100.00
58955;BME280;45815;52.334;5.024;2023-03-19T02:28:41;101114.63;;;10.31;100.00
58955;BME280;45815;52.334;5.024;2023-03-19T02:31:11;101113.69;;;10.29;100.00
58955;BME280;45815;52.334;5.024;2023-03-19T02:33:38;101108.38;;;10.27;100.00
58955;BME280;45815;52.334;5.024;2023-03-19T02:36:05;101108.25;;;10.23;100.00
58955;BME280;45815;52.334;5.024;2023-03-19T02:38:35;101112.63;;;10.22;100.00
58955;BME280;45815;52.334;5.024;2023-03-19T02:41:06;101115.13;;;10.18;100.00
58955;BME280;45815;52.334;5.024;2023-03-19T02:43:35;101112.50;;;10.16;100.00
58955;BME280;45815;52.334;5.024;2023-03-19T02:46:03;101121.19;;;10.15;100.00
58955;BME280;45815;52.334;5.024;2023-03-19T02:48:29;101127.31;;;10.14;100.00
58955;BME280;45815;52.334;5.024;2023-03-19T02:50:55;101119.34;;;10.11;100.00
58955;BME280;45815;52.334;5.024;2023-03-19T02:53:21;101122.81;;;10.10;100.00
58955;BME280;45815;52.334;5.024;2023-03-19T02:55:47;101114.78;;;10.04;100.00
58955;BME280;45815;52.334;5.024;2023-03-19T02:58:12;101117.34;;;10.01;100.00
58955;BME280;45815;52.334;5.024;2023-03-19T03:00:39;101122.41;;;9.94;100.00
58955;BME280;45815;52.334;5.024;2023-03-19T03:03:05;101131.06;;;9.90;100.00
58955;BME280;45815;52.334;5.024;2023-03-19T03:05:32;101112.41;;;9.80;100.00
58955;BME280;45815;52.334;5.024;2023-03-19T03:07:58;101124.75;;;9.84;100.00
58955;BME280;45815;52.334;5.024;2023-03-19T03:10:24;101125.56;;;9.81;100.00
58955;BME280;45815;52.334;5.024;2023-03-19T03:12:50;101123.72;;;9.77;100.00
58955;BME280;45815;52.334;5.024;2023-03-19T03:15:15;101119.22;;;9.73;100.00
58955;BME280;45815;52.334;5.024;2023-03-19T03:17:42;101120.09;;;9.72;100.00
58955;BME280;45815;52.334;5.024;2023-03-19T03:20:10;101118.22;;;9.68;100.00
58955;BME280;45815;52.334;5.024;2023-03-19T03:22:37;101111.84;;;9.58;100.00
58955;BME280;45815;52.334;5.024;2023-03-19T03:25:04;101102.06;;;9.52;100.00
58955;BME280;45815;52.334;5.024;2023-03-19T03:27:29;101118.78;;;9.56;100.00
58955;BME280;45815;52.334;5.024;2023-03-19T03:29:55;101122.13;;;9.50;100.00
58955;BME280;45815;52.334;5.024;2023-03-19T03:32:21;101120.34;;;9.49;100.00
58955;BME280;45815;52.334;5.024;2023-03-19T03:34:47;101126.31;;;9.45;100.00
58955;BME280;45815;52.334;5.024;2023-03-19T03:37:12;101119.25;;;9.41;100.00
58955;BME280;45815;52.334;5.024;2023-03-19T03:39:38;101101.41;;;9.28;100.00
58955;BME280;45815;52.334;5.024;2023-03-19T03:42:03;101110.94;;;9.26;100.00
58955;BME280;45815;52.334;5.024;2023-03-19T03:44:30;101115.31;;;9.27;100.00
58955;BME280;45815;52.334;5.024;2023-03-19T03:46:55;101123.22;;;9.28;100.00
58955;BME280;45815;52.334;5.024;2023-03-19T03:49:21;101121.41;;;9.26;100.00
58955;BME280;45815;52.334;5.024;2023-03-19T03:51:47;101120.47;;;9.24;100.00
58955;BME280;45815;52.334;5.024;2023-03-19T03:54:12;101122.16;;;9.22;100.00
58955;BME280;45815;52.334;5.024;2023-03-19T03:56:38;101120.31;;;9.18;100.00
58955;BME280;45815;52.334;5.024;2023-03-19T03:59:04;101121.06;;;9.14;100.00
58955;BME280;45815;52.334;5.024;2023-03-19T04:01:29;101125.38;;;9.12;100.00
58955;BME280;45815;52.334;5.024;2023-03-19T04:03:55;101123.56;;;9.11;100.00
58955;BME280;45815;52.334;5.024;2023-03-19T04:06:22;101119.91;;;9.04;100.00
58955;BME280;45815;52.334;5.024;2023-03-19T04:09:04;101123.19;;;8.97;100.00
58955;BME280;45815;52.334;5.024;2023-03-19T04:11:29;101107.19;;;8.87;100.00
58955;BME280;45815;52.334;5.024;2023-03-19T04:13:55;101120.56;;;8.97;100.00
58955;BME280;45815;52.334;5.024;2023-03-19T04:16:23;101119.72;;;8.98;100.00
58955;BME280;45815;52.334;5.024;2023-03-19T04:18:49;101120.47;;;8.94;100.00
58955;BME280;45815;52.334;5.024;2023-03-19T04:21:15;101132.66;;;8.93;100.00
58955;BME280;45815;52.334;5.024;2023-03-19T04:23:40;101123.81;;;8.90;100.00
58955;BME280;45815;52.334;5.024;2023-03-19T04:26:06;101124.72;;;8.90;100.00
58955;BME280;45815;52.334;5.024;2023-03-19T04:28:32;101130.78;;;8.89;100.00
58955;BME280;45815;52.334;5.024;2023-03-19T04:31:04;101132.53;;;8.88;100.00
58955;BME280;45815;52.334;5.024;2023-03-19T04:33:32;101147.28;;;8.86;100.00
58955;BME280;45815;52.334;5.024;2023-03-19T04:35:58;101147.34;;;8.88;100.00
58955;BME280;45815;52.334;5.024;2023-03-19T04:38:24;101146.41;;;8.86;100.00
58955;BME280;45815;52.334;5.024;2023-03-19T04:40:51;101133.91;;;8.77;100.00
58955;BME280;45815;52.334;5.024;2023-03-19T04:43:17;101143.78;;;8.86;100.00
58955;BME280;45815;52.334;5.024;2023-03-19T04:45:43;101153.38;;;8.85;100.00
58955;BME280;45815;52.334;5.024;2023-03-19T04:48:09;101145.41;;;8.82;100.00
58955;BME280;45815;52.334;5.024;2023-03-19T04:50:34;101148.94;;;8.83;100.00
58955;BME280;45815;52.334;5.024;2023-03-19T04:53:00;101145.38;;;8.81;100.00
58955;BME280;45815;52.334;5.024;2023-03-19T04:55:26;101148.69;;;8.75;100.00
58955;BME280;45815;52.334;5.024;2023-03-19T04:58:21;101148.44;;;8.68;100.00
58955;BME280;45815;52.334;5.024;2023-03-19T05:00:54;101171.28;;;8.72;100.00
58955;BME280;45815;52.334;5.024;2023-03-19T05:03:31;101172.94;;;8.70;100.00
58955;BME280;45815;52.334;5.024;2023-03-19T05:05:56;101171.84;;;8.63;100.00
58955;BME280;45815;52.334;5.024;2023-03-19T05:08:22;101176.41;;;8.69;100.00
58955;BME280;45815;52.334;5.024;2023-03-19T05:10:48;101182.53;;;8.69;100.00
58955;BME280;45815;52.334;5.024;2023-03-19T05:13:13;101186.91;;;8.70;100.00
58955;BME280;45815;52.334;5.024;2023-03-19T05:15:46;101178.19;;;8.70;100.00
58955;BME280;45815;52.334;5.024;2023-03-19T05:18:12;101182.53;;;8.69;100.00
58955;BME280;45815;52.334;5.024;2023-03-19T05:20:41;101176.50;;;8.72;100.00
58955;BME280;45815;52.334;5.024;2023-03-19T05:23:15;101182.69;;;8.74;100.00
58955;BME280;45815;52.334;5.024;2023-03-19T05:25:47;101180.94;;;8.74;100.00
58955;BME280;45815;52.334;5.024;2023-03-19T05:28:19;101172.84;;;8.66;100.00
58955;BME280;45815;52.334;5.024;2023-03-19T05:30:45;101184.44;;;8.75;100.00
58955;BME280;45815;52.334;5.024;2023-03-19T05:33:35;101187.16;;;8.78;100.00
58955;BME280;45815;52.334;5.024;2023-03-19T05:36:00;101185.28;;;8.74;100.00
58955;BME280;45815;52.334;5.024;2023-03-19T05:38:38;101192.19;;;8.72;100.00
58955;BME280;45815;52.334;5.024;2023-03-19T05:41:09;101192.28;;;8.75;100.00
58955;BME280;45815;52.334;5.024;2023-03-19T05:43:55;101202.75;;;8.75;100.00
58955;BME280;45815;52.334;5.024;2023-03-19T05:46:58;101213.13;;;8.72;100.00
58955;BME280;45815;52.334;5.024;2023-03-19T05:49:28;101207.94;;;8.73;100.00
58955;BME280;45815;52.334;5.024;2023-03-19T05:51:53;101206.16;;;8.72;100.00
58955;BME280;45815;52.334;5.024;2023-03-19T05:54:19;101215.69;;;8.70;100.00
58955;BME280;45815;52.334;5.024;2023-03-19T05:57:11;101218.38;;;8.72;100.00
58955;BME280;45815;52.334;5.024;2023-03-19T05:59:49;101218.31;;;8.70;100.00
58955;BME280;45815;52.334;5.024;2023-03-19T06:02:40;101229.56;;;8.68;100.00
58955;BME280;45815;52.334;5.024;2023-03-19T06:05:25;101227.97;;;8.71;100.00
58955;BME280;45815;52.334;5.024;2023-03-19T06:07:54;101230.31;;;8.63;100.00
58955;BME280;45815;52.334;5.024;2023-03-19T06:10:27;101238.91;;;8.59;100.00
58955;BME280;45815;52.334;5.024;2023-03-19T06:12:55;101237.91;;;8.56;100.00
58955;BME280;45815;52.334;5.024;2023-03-19T06:15:34;101244.16;;;8.59;100.00
58955;BME280;45815;52.334;5.024;2023-03-19T06:18:12;101241.63;;;8.62;100.00
58955;BME280;45815;52.334;5.024;2023-03-19T06:20:37;101244.16;;;8.59;100.00
58955;BME280;45815;52.334;5.024;2023-03-19T06:23:03;101243.13;;;8.56;100.00
58955;BME280;45815;52.334;5.024;2023-03-19T06:25:29;101239.72;;;8.58;100.00
58955;BME280;45815;52.334;5.024;2023-03-19T06:27:54;101240.78;;;8.63;100.00
58955;BME280;45815;52.334;5.024;2023-03-19T06:30:27;101248.59;;;8.62;100.00
58955;BME280;45815;52.334;5.024;2023-03-19T06:32:54;101251.22;;;8.63;100.00
58955;BME280;45815;52.334;5.024;2023-03-19T06:35:21;101257.47;;;8.67;100.00
58955;BME280;45815;52.334;5.024;2023-03-19T06:37:48;101265.38;;;8.69;100.00
58955;BME280;45815;52.334;5.024;2023-03-19T06:40:14;101263.59;;;8.68;100.00
58955;BME280;45815;52.334;5.024;2023-03-19T06:42:43;101267.06;;;8.66;100.00
58955;BME280;45815;52.334;5.024;2023-03-19T06:45:10;101273.25;;;8.69;100.00
58955;BME280;45815;52.334;5.024;2023-03-19T06:47:36;101270.81;;;8.75;100.00
58955;BME280;45815;52.334;5.024;2023-03-19T06:50:01;101284.75;;;8.74;100.00
58955;BME280;45815;52.334;5.024;2023-03-19T06:52:27;101286.50;;;8.75;100.00
58955;BME280;45815;52.334;5.024;2023-03-19T06:54:53;101293.69;;;8.80;100.00
58955;BME280;45815;52.334;5.024;2023-03-19T06:57:18;101297.19;;;8.81;100.00
58955;BME280;45815;52.334;5.024;2023-03-19T06:59:43;101299.84;;;8.82;100.00
58955;BME280;45815;52.334;5.024;2023-03-19T07:02:10;101298.97;;;8.82;100.00
58955;BME280;45815;52.334;5.024;2023-03-19T07:04:36;101300.63;;;8.80;100.00
58955;BME280;45815;52.334;5.024;2023-03-19T07:07:01;101305.88;;;8.80;100.00
58955;BME280;45815;52.334;5.024;2023-03-19T07:09:27;101315.38;;;8.78;100.00
58955;BME280;45815;52.334;5.024;2023-03-19T07:11:52;101310.75;;;8.69;100.00
58955;BME280;45815;52.334;5.024;2023-03-19T07:14:18;101320.44;;;8.72;100.00
58955;BME280;45815;52.334;5.024;2023-03-19T07:16:43;101328.38;;;8.75;100.00
58955;BME280;45815;52.334;5.024;2023-03-19T07:19:09;101328.28;;;8.72;100.00
58955;BME280;45815;52.334;5.024;2023-03-19T07:21:35;101337.09;;;8.74;100.00
58955;BME280;45815;52.334;5.024;2023-03-19T07:24:00;101335.28;;;8.73;100.00
58955;BME280;45815;52.334;5.024;2023-03-19T07:26:26;101345.75;;;8.73;100.00
58955;BME280;45815;52.334;5.024;2023-03-19T07:28:52;101333.53;;;8.72;100.00
58955;BME280;45815;52.334;5.024;2023-03-19T07:31:17;101342.50;;;8.80;100.00
58955;BME280;45815;52.334;5.024;2023-03-19T07:33:43;101338.94;;;8.78;100.00
58955;BME280;45815;52.334;5.024;2023-03-19T07:36:08;101343.53;;;8.83;100.00
58955;BME280;45815;52.334;5.024;2023-03-19T07:38:34;101335.81;;;8.88;100.00
58955;BME280;45815;52.334;5.024;2023-03-19T07:40:59;101346.41;;;8.91;100.00
58955;BME280;45815;52.334;5.024;2023-03-19T07:43:25;101346.63;;;8.97;100.00
58955;BME280;45815;52.334;5.024;2023-03-19T07:45:50;101349.91;;;8.92;100.00
58955;BME280;45815;52.334;5.024;2023-03-19T07:48:16;101358.75;;;8.95;100.00
58955;BME280;45815;52.334;5.024;2023-03-19T07:50:42;101345.75;;;8.98;100.00
58955;BME280;45815;52.334;5.024;2023-03-19T07:53:07;101348.38;;;8.98;100.00
58955;BME280;45815;52.334;5.024;2023-03-19T07:55:33;101359.38;;;8.88;100.00
58955;BME280;45815;52.334;5.024;2023-03-19T07:57:58;101354.34;;;8.94;100.00
58955;BME280;45815;52.334;5.024;2023-03-19T08:00:24;101354.31;;;8.93;100.00
58955;BME280;45815;52.334;5.024;2023-03-19T08:02:49;101362.16;;;8.93;100.00
58955;BME280;45815;52.334;5.024;2023-03-19T08:05:15;101350.06;;;8.96;100.00
58955;BME280;45815;52.334;5.024;2023-03-19T08:07:41;101342.03;;;8.92;100.00
58955;BME280;45815;52.334;5.024;2023-03-19T08:10:07;101349.41;;;9.03;100.00
58955;BME280;45815;52.334;5.024;2023-03-19T08:12:33;101350.41;;;9.07;100.00
58955;BME280;45815;52.334;5.024;2023-03-19T08:15:04;101347.22;;;9.16;100.00
58955;BME280;45815;52.334;5.024;2023-03-19T08:17:30;101361.44;;;9.24;100.00
58955;BME280;45815;52.334;5.024;2023-03-19T08:19:58;101359.97;;;9.32;100.00
58955;BME280;45815;52.334;5.024;2023-03-19T08:22:23;101361.84;;;9.36;100.00
58955;BME280;45815;52.334;5.024;2023-03-19T08:24:49;101367.28;;;9.42;100.00
58955;BME280;45815;52.334;5.024;2023-03-19T08:27:14;101371.72;;;9.45;100.00
58955;BME280;45815;52.334;5.024;2023-03-19T08:29:40;101376.38;;;9.54;100.00
58955;BME280;45815;52.334;5.024;2023-03-19T08:32:05;101379.84;;;9.52;100.00
58955;BME280;45815;52.334;5.024;2023-03-19T08:34:31;101372.81;;;9.51;100.00
58955;BME280;45815;52.334;5.024;2023-03-19T08:36:57;101388.75;;;9.58;100.00
58955;BME280;45815;52.334;5.024;2023-03-19T08:39:22;101391.25;;;9.55;100.00
58955;BME280;45815;52.334;5.024;2023-03-19T08:41:48;101387.97;;;9.60;100.00
58955;BME280;45815;52.334;5.024;2023-03-19T08:44:13;101386.13;;;9.58;100.00
58955;BME280;45815;52.334;5.024;2023-03-19T08:46:39;101399.53;;;9.67;100.00
58955;BME280;45815;52.334;5.024;2023-03-19T08:49:04;101405.69;;;9.69;100.00
58955;BME280;45815;52.334;5.024;2023-03-19T08:51:29;101404.22;;;9.77;100.00
58955;BME280;45815;52.334;5.024;2023-03-19T08:53:56;101406.91;;;9.80;100.00
58955;BME280;45815;52.334;5.024;2023-03-19T08:56:21;101394.66;;;9.79;100.00
58955;BME280;45815;52.334;5.024;2023-03-19T08:58:47;101412.38;;;9.86;100.00
58955;BME280;45815;52.334;5.024;2023-03-19T09:01:13;101414.91;;;9.83;100.00
58955;BME280;45815;52.334;5.024;2023-03-19T09:03:40;101414.19;;;9.89;100.00
58955;BME280;45815;52.334;5.024;2023-03-19T09:06:08;101411.63;;;9.90;100.00
58955;BME280;45815;52.334;5.024;2023-03-19T09:08:35;101415.94;;;9.88;100.00
58955;BME280;45815;52.334;5.024;2023-03-19T09:11:02;101413.31;;;9.88;100.00
58955;BME280;45815;52.334;5.024;2023-03-19T09:13:27;101422.13;;;9.90;100.00
58955;BME280;45815;52.334;5.024;2023-03-19T09:15:53;101422.19;;;9.93;100.00
58955;BME280;45815;52.334;5.024;2023-03-19T09:18:19;101426.56;;;9.93;100.00
58955;BME280;45815;52.334;5.024;2023-03-19T09:20:46;101416.59;;;9.83;100.00
58955;BME280;45815;52.334;5.024;2023-03-19T09:23:11;101414.13;;;9.87;100.00
58955;BME280;45815;52.334;5.024;2023-03-19T09:25:37;101430.28;;;10.00;100.00
58955;BME280;45815;52.334;5.024;2023-03-19T09:28:02;101428.63;;;10.03;100.00
58955;BME280;45815;52.334;5.024;2023-03-19T09:30:28;101440.94;;;10.06;100.00
58955;BME280;45815;52.334;5.024;2023-03-19T09:32:53;101442.81;;;10.10;100.00
58955;BME280;45815;52.334;5.024;2023-03-19T09:35:19;101442.88;;;10.13;100.00
58955;BME280;45815;52.334;5.024;2023-03-19T09:37:44;101443.88;;;10.17;100.00
58955;BME280;45815;52.334;5.024;2023-03-19T09:40:37;101444.56;;;10.11;100.00
58955;BME280;45815;52.334;5.024;2023-03-19T09:45:51;101451.78;;;10.18;100.00
58955;BME280;45815;52.334;5.024;2023-03-19T09:49:20;101462.41;;;10.21;100.00
58955;BME280;45815;52.334;5.024;2023-03-19T09:51:40;101465.34;;;10.32;100.00
58955;BME280;45815;52.334;5.024;2023-03-19T09:54:27;101453.19;;;10.34;100.00
58955;BME280;45815;52.334;5.024;2023-03-19T09:56:54;101466.72;;;10.48;100.00
58955;BME280;45815;52.334;5.024;2023-03-19T09:59:24;101472.16;;;10.54;100.00
58955;BME280;45815;52.334;5.024;2023-03-19T10:13:07;101482.28;;;10.72;100.00
58955;BME280;45815;52.334;5.024;2023-03-19T10:15:36;101477.16;;;10.76;100.00
58955;BME280;45815;52.334;5.024;2023-03-19T10:20:59;101474.78;;;10.86;100.00
58955;BME280;45815;52.334;5.024;2023-03-19T10:26:19;101472.22;;;10.87;100.00
58955;BME280;45815;52.334;5.024;2023-03-19T10:34:36;101475.78;;;10.89;100.00
58955;BME280;45815;52.334;5.024;2023-03-19T10:37:23;101474.97;;;10.92;100.00
58955;BME280;45815;52.334;5.024;2023-03-19T10:39:49;101477.72;;;10.96;100.00
58955;BME280;45815;52.334;5.024;2023-03-19T10:44:54;101474.41;;;11.04;100.00
58955;BME280;45815;52.334;5.024;2023-03-19T10:47:24;101478.31;;;11.18;100.00
58955;BME280;45815;52.334;5.024;2023-03-19T10:49:50;101473.34;;;11.29;100.00
58955;BME280;45815;52.334;5.024;2023-03-19T10:52:31;101481.81;;;11.18;100.00
58955;BME280;45815;52.334;5.024;2023-03-19T10:55:22;101467.22;;;11.30;100.00
58955;BME280;45815;52.334;5.024;2023-03-19T10:57:49;101471.03;;;11.41;100.00
58955;BME280;45815;52.334;5.024;2023-03-19T11:00:17;101468.44;;;11.43;100.00
58955;BME280;45815;52.334;5.024;2023-03-19T11:02:54;101471.16;;;11.46;100.00
58955;BME280;45815;52.334;5.024;2023-03-19T11:07:49;101467.06;;;11.58;100.00
58955;BME280;45815;52.334;5.024;2023-03-19T11:10:16;101464.53;;;11.61;100.00
58955;BME280;45815;52.334;5.024;2023-03-19T11:12:47;101467.28;;;11.66;100.00
58955;BME280;45815;52.334;5.024;2023-03-19T11:15:25;101467.25;;;11.65;100.00
58955;BME280;45815;52.334;5.024;2023-03-19T11:18:07;101470.78;;;11.67;100.00
58955;BME280;45815;52.334;5.024;2023-03-19T11:20:35;101484.88;;;11.69;100.00
58955;BME280;45815;52.334;5.024;2023-03-19T11:23:02;101484.81;;;11.67;100.00
58955;BME280;45815;52.334;5.024;2023-03-19T11:33:42;101487.63;;;11.75;100.00
58955;BME280;45815;52.334;5.024;2023-03-19T11:36:52;101481.44;;;11.73;100.00
58955;BME280;45815;52.334;5.024;2023-03-19T11:39:32;101487.03;;;11.87;100.00
58955;BME280;45815;52.334;5.024;2023-03-19T11:53:41;101494.81;;;11.80;100.00
58955;BME280;45815;52.334;5.024;2023-03-19T11:58:57;101490.97;;;11.68;100.00
58955;BME280;45815;52.334;5.024;2023-03-19T12:01:53;101495.34;;;11.67;100.00
58955;BME280;45815;52.334;5.024;2023-03-19T12:04:44;101490.84;;;11.61;100.00
58955;BME280;45815;52.334;5.024;2023-03-19T12:07:31;101498.78;;;11.65;100.00
58955;BME280;45815;52.334;5.024;2023-03-19T12:10:28;101503.22;;;11.67;100.00
58955;BME280;45815;52.334;5.024;2023-03-19T12:27:20;101523.50;;;11.71;100.00
58955;BME280;45815;52.334;5.024;2023-03-19T12:35:25;101513.41;;;11.53;100.00
58955;BME280;45815;52.334;5.024;2023-03-19T12:38:16;101515.09;;;11.51;100.00
58955;BME280;45815;52.334;5.024;2023-03-19T12:48:57;101528.78;;;11.38;100.00
58955;BME280;45815;52.334;5.024;2023-03-19T12:51:32;101508.34;;;11.28;100.00
58955;BME280;45815;52.334;5.024;2023-03-19T12:54:11;101509.34;;;11.33;100.00
58955;BME280;45815;52.334;5.024;2023-03-19T12:56:59;101529.63;;;11.37;100.00
58955;BME280;45815;52.334;5.024;2023-03-19T13:00:24;101534.13;;;11.41;100.00
58955;BME280;45815;52.334;5.024;2023-03-19T13:04:58;101535.44;;;11.58;100.00
58955;BME280;45815;52.334;5.024;2023-03-19T13:07:47;101538.75;;;11.50;100.00
58955;BME280;45815;52.334;5.024;2023-03-19T13:10:18;101547.44;;;11.49;100.00
58955;BME280;45815;52.334;5.024;2023-03-19T13:12:45;101547.63;;;11.55;100.00
58955;BME280;45815;52.334;5.024;2023-03-19T13:15:18;101547.53;;;11.52;100.00
58955;BME280;45815;52.334;5.024;2023-03-19T13:17:53;101548.50;;;11.55;100.00
58955;BME280;45815;52.334;5.024;2023-03-19T13:23:01;101545.81;;;11.54;100.00
58955;BME280;45815;52.334;5.024;2023-03-19T13:25:43;101546.56;;;11.48;100.00
58955;BME280;45815;52.334;5.024;2023-03-19T13:28:21;101547.66;;;11.56;100.00
58955;BME280;45815;52.334;5.024;2023-03-19T13:33:26;101541.94;;;11.73;100.00
58955;BME280;45815;52.334;5.024;2023-03-19T13:35:54;101545.44;;;11.72;100.00
58955;BME280;45815;52.334;5.024;2023-03-19T13:38:33;101547.00;;;11.64;100.00
58955;BME280;45815;52.334;5.024;2023-03-19T13:41:02;101548.13;;;11.75;100.00
58955;BME280;45815;52.334;5.024;2023-03-19T13:59:26;101550.78;;;12.10;100.00
58955;BME280;45815;52.334;5.024;2023-03-19T14:01:52;101549.50;;;11.92;100.00
58955;BME280;45815;52.334;5.024;2023-03-19T14:04:24;101554.41;;;11.80;100.00
58955;BME280;45815;52.334;5.024;2023-03-19T14:06:58;101557.81;;;11.76;100.00
58955;BME280;45815;52.334;5.024;2023-03-19T14:12:20;101571.56;;;11.66;100.00
58955;BME280;45815;52.334;5.024;2023-03-19T14:17:21;101572.84;;;11.81;100.00
58955;BME280;45815;52.334;5.024;2023-03-19T14:19:49;101573.84;;;11.85;100.00
58955;BME280;45815;52.334;5.024;2023-03-19T14:22:18;101568.75;;;11.91;100.00
58955;BME280;45815;52.334;5.024;2023-03-19T14:24:55;101564.53;;;11.98;100.00
58955;BME280;45815;52.334;5.024;2023-03-19T14:27:30;101549.69;;;12.00;100.00
58955;BME280;45815;52.334;5.024;2023-03-19T14:30:00;101572.59;;;12.06;100.00
58955;BME280;45815;52.334;5.024;2023-03-19T14:32:33;101574.16;;;11.97;100.00
58955;BME280;45815;52.334;5.024;2023-03-19T14:35:00;101574.97;;;11.95;100.00
58955;BME280;45815;52.334;5.024;2023-03-19T14:37:37;101572.25;;;11.90;100.00
58955;BME280;45815;52.334;5.024;2023-03-19T14:40:15;101565.19;;;11.89;100.00
58955;BME280;45815;52.334;5.024;2023-03-19T14:50:32;101554.25;;;11.74;100.00
58955;BME280;45815;52.334;5.024;2023-03-19T14:55:39;101553.50;;;11.78;100.00
58955;BME280;45815;52.334;5.024;2023-03-19T14:58:10;101563.22;;;11.82;100.00
58955;BME280;45815;52.334;5.024;2023-03-19T15:00:42;101563.16;;;11.79;100.00
58955;BME280;45815;52.334;5.024;2023-03-19T15:03:33;101570.19;;;11.80;100.00